Time;durP1;ratioP1;P1;durP2;ratioP2;P2;SDS_P1;SDS_P2;PMS_P1;PMS_P2;Temp;Humidity;BMP_temperature;BMP_pressure;BME280_temperature;BME280_humidity;BME280_pressure;Samples;Min_cycle;Max_cycle;Signal;HPM_P1;HPM_P2
2021/04/10 00:00:27;;;;;;;28.10;19.52;;;;;;;3.42;52.49;101338.34;1699340;84;21095;-56
2021/04/10 00:02:56;;;;;;;28.23;18.75;;;;;;;3.40;52.88;101337.72;1765909;81;21640;-55
2021/04/10 00:05:26;;;;;;;27.35;16.77;;;;;;;3.37;53.10;101338.14;1699859;84;21087;-56
2021/04/10 00:07:57;;;;;;;30.15;17.75;;;;;;;3.34;53.00;101329.02;1765657;81;21871;-56
2021/04/10 00:10:31;;;;;;;33.02;19.23;;;;;;;3.32;53.05;101327.03;1698900;84;21389;-56
2021/04/10 00:13:02;;;;;;;29.27;16.93;;;;;;;3.32;52.93;101331.11;1699502;84;21063;-56
2021/04/10 00:15:35;;;;;;;27.95;18.73;;;;;;;3.30;53.03;101325.02;1765153;81;20995;-56
2021/04/10 00:18:03;;;;;;;28.07;17.50;;;;;;;3.28;53.17;101323.88;1765492;81;20971;-56
2021/04/10 00:20:31;;;;;;;32.83;17.92;;;;;;;3.26;53.62;101329.21;1765394;81;20944;-56
2021/04/10 00:22:59;;;;;;;26.35;17.62;;;;;;;3.23;53.63;101324.16;1765823;81;21386;-55
2021/04/10 00:25:30;;;;;;;33.40;17.60;;;;;;;3.21;53.77;101323.01;1765909;81;21029;-56
2021/04/10 00:28:14;;;;;;;30.88;17.35;;;;;;;3.17;53.92;101333.13;1765697;81;21051;-56
2021/04/10 00:30:33;;;;;;;28.23;17.17;;;;;;;3.09;54.48;101333.61;1761768;80;21589;-56
2021/04/10 00:33:05;;;;;;;29.45;16.50;;;;;;;3.04;54.63;101326.58;1774055;80;21640;-56
2021/04/10 00:35:40;;;;;;;27.58;17.45;;;;;;;3.03;54.78;101329.00;1773204;80;21349;-56
2021/04/10 00:38:11;;;;;;;29.32;18.10;;;;;;;3.00;55.06;101328.55;1773278;80;21062;-56
2021/04/10 00:40:39;;;;;;;33.05;18.40;;;;;;;2.96;55.24;101330.84;1774183;80;20999;-55
2021/04/10 00:43:15;;;;;;;25.20;17.25;;;;;;;2.93;55.61;101329.89;1707703;84;21181;-56
2021/04/10 00:45:44;;;;;;;23.20;17.10;;;;;;;2.87;55.79;101326.59;1707482;83;21118;-56
2021/04/10 00:48:14;;;;;;;25.23;17.02;;;;;;;2.81;56.02;101330.95;1707826;83;21226;-56
2021/04/10 00:50:44;;;;;;;29.48;17.73;;;;;;;2.74;56.20;101325.51;1773808;80;21617;-55
2021/04/10 00:53:12;;;;;;;29.60;18.75;;;;;;;2.67;56.45;101325.98;1707764;83;21648;-56
2021/04/10 00:55:46;;;;;;;36.00;19.95;;;;;;;2.61;56.90;101333.54;1680481;84;21629;-56
2021/04/10 00:58:15;;;;;;;33.00;21.60;;;;;;;2.52;57.23;101324.72;1707311;83;21189;-55
2021/04/10 01:00:49;;;;;;;29.23;20.15;;;;;;;2.49;57.48;101332.43;1717605;80;22392;-56
2021/04/10 01:03:24;;;;;;;30.10;19.25;;;;;;;2.47;57.46;101327.17;1679783;84;21466;-56
2021/04/10 01:05:52;;;;;;;26.93;17.90;;;;;;;2.47;57.47;101331.77;1774110;80;21031;-55
2021/04/10 01:08:27;;;;;;;27.25;18.70;;;;;;;2.44;57.69;101327.57;1707675;84;21054;-56
2021/04/10 01:11:30;;;;;;;27.35;16.52;;;;;;;2.42;57.81;101338.63;1707540;83;21133;-55
2021/04/10 01:14:30;;;;;;;27.65;19.10;;;;;;;2.41;57.79;101336.97;1773017;80;21237;-55
2021/04/10 01:17:15;;;;;;;25.57;18.07;;;;;;;2.42;57.45;101329.13;1773991;80;22163;-55
2021/04/10 01:20:22;;;;;;;34.55;20.32;;;;;;;2.46;57.55;101333.66;1743920;80;21035;-55
2021/04/10 01:23:26;;;;;;;31.68;18.30;;;;;;;2.47;57.48;101335.31;1707992;84;21039;-56
2021/04/10 01:26:21;;;;;;;28.32;19.48;;;;;;;2.52;57.26;101336.09;1774008;80;22071;-55
2021/04/10 01:29:00;;;;;;;36.68;20.80;;;;;;;2.55;57.28;101336.52;1773559;80;21215;-55
2021/04/10 01:31:40;;;;;;;34.15;20.40;;;;;;;2.55;57.46;101341.95;1770650;80;21653;-55
2021/04/10 01:34:31;;;;;;;33.33;19.75;;;;;;;2.52;57.69;101342.88;1765780;81;21044;-55
2021/04/10 01:37:09;;;;;;;40.17;20.55;;;;;;;2.50;57.78;101339.51;1698931;84;21083;-55
2021/04/10 01:39:37;;;;;;;31.77;18.10;;;;;;;2.46;57.85;101339.08;1699943;84;21027;-55
2021/04/10 01:42:09;;;;;;;41.00;21.15;;;;;;;2.45;57.94;101343.34;1765776;81;21209;-56
2021/04/10 01:44:37;;;;;;;38.48;20.50;;;;;;;2.42;57.99;101341.86;1743745;81;21684;-55
2021/04/10 01:47:12;;;;;;;38.67;20.82;;;;;;;2.44;58.09;101345.73;1700015;84;21027;-55
2021/04/10 01:49:54;;;;;;;32.33;19.95;;;;;;;2.44;58.04;101343.02;1765911;81;21030;-55
2021/04/10 01:52:22;;;;;;;30.90;20.15;;;;;;;2.42;57.82;101342.69;1700252;84;21079;-56
2021/04/10 01:54:56;;;;;;;33.13;20.85;;;;;;;2.45;57.69;101341.99;1765802;81;21426;-55
2021/04/10 01:57:24;;;;;;;38.23;20.77;;;;;;;2.50;57.31;101347.64;1699809;84;21094;-56
2021/04/10 01:59:58;;;;;;;37.78;19.17;;;;;;;2.57;56.87;101344.45;1765273;81;20999;-55
2021/04/10 02:02:30;;;;;;;30.37;20.70;;;;;;;2.64;56.66;101347.23;1698705;84;20988;-53
2021/04/10 02:05:02;;;;;;;29.92;18.77;;;;;;;2.65;56.65;101345.67;1765778;81;22119;-54
2021/04/10 02:07:31;;;;;;;35.15;20.27;;;;;;;2.69;56.30;101346.95;1765609;81;21352;-53
2021/04/10 02:10:01;;;;;;;25.90;18.45;;;;;;;2.73;56.06;101345.53;1699810;84;21641;-56
2021/04/10 02:12:35;;;;;;;25.43;18.02;;;;;;;2.74;55.72;101343.14;1758226;81;21653;-54
2021/04/10 02:15:13;;;;;;;33.58;20.70;;;;;;;2.81;55.61;101349.12;1765183;81;21668;-56
2021/04/10 02:17:50;;;;;;;28.52;19.95;;;;;;;2.80;55.91;101348.79;1765861;81;21019;-54
2021/04/10 02:20:22;;;;;;;24.07;18.45;;;;;;;2.76;55.96;101350.55;1699783;84;21271;-54
2021/04/10 02:22:53;;;;;;;28.92;20.15;;;;;;;2.73;56.16;101348.23;1700028;84;21054;-54
2021/04/10 02:25:29;;;;;;;34.00;18.87;;;;;;;2.71;56.08;101339.44;1699225;84;21087;-54
2021/04/10 02:28:05;;;;;;;27.20;19.45;;;;;;;2.71;56.05;101346.22;1765966;81;21229;-54
2021/04/10 02:30:34;;;;;;;28.10;19.77;;;;;;;2.73;56.06;101346.02;1700053;84;22132;-54
2021/04/10 02:33:15;;;;;;;33.10;19.95;;;;;;;2.72;56.02;101343.84;1773701;80;21382;-56
2021/04/10 02:35:50;;;;;;;30.45;19.80;;;;;;;2.71;55.96;101348.11;1774164;80;21078;-56
2021/04/10 02:38:27;;;;;;;27.52;19.02;;;;;;;2.71;55.72;101342.16;1774064;80;21164;-54
2021/04/10 02:41:11;;;;;;;26.25;18.57;;;;;;;2.72;55.59;101350.62;1774122;80;21593;-54
2021/04/10 02:43:59;;;;;;;28.77;18.17;;;;;;;2.80;55.54;101341.51;1813422;79;22697;-54
2021/04/10 02:46:32;;;;;;;32.35;19.65;;;;;;;2.74;55.51;101347.21;1770661;80;21061;-54
2021/04/10 02:49:06;;;;;;;26.80;18.62;;;;;;;2.72;55.70;101342.48;1755221;81;21211;-55
2021/04/10 02:51:52;;;;;;;28.15;18.70;;;;;;;2.69;55.66;101345.59;1755384;81;21611;-54
2021/04/10 02:54:31;;;;;;;26.48;18.32;;;;;;;2.68;55.59;101345.80;1755484;81;21041;-55
2021/04/10 02:57:13;;;;;;;29.00;19.52;;;;;;;2.69;55.52;101350.20;1751019;81;21089;-55
2021/04/10 02:59:50;;;;;;;34.25;20.23;;;;;;;2.69;55.53;101340.17;1755392;81;21655;-55
2021/04/10 03:02:22;;;;;;;37.95;18.62;;;;;;;2.69;55.60;101349.67;1755557;81;22141;-55
2021/04/10 03:04:51;;;;;;;26.00;16.95;;;;;;;2.70;55.69;101345.07;1755189;81;22146;-55
2021/04/10 03:07:19;;;;;;;27.40;18.60;;;;;;;2.69;55.73;101347.48;1750231;81;21049;-55
2021/04/10 03:09:57;;;;;;;25.70;17.65;;;;;;;2.69;55.68;101349.67;1755104;81;21603;-55
2021/04/10 03:12:26;;;;;;;30.62;19.32;;;;;;;2.69;55.50;101352.91;1755385;81;21057;-55
2021/04/10 03:14:57;;;;;;;24.72;17.25;;;;;;;2.68;56.01;101356.65;1755207;81;22122;-55
2021/04/10 03:17:27;;;;;;;26.65;16.95;;;;;;;2.66;55.89;101356.85;1754963;81;21086;-55
2021/04/10 03:20:06;;;;;;;28.07;17.82;;;;;;;2.66;55.90;101361.42;1755327;81;21022;-55
2021/04/10 03:22:35;;;;;;;27.15;17.12;;;;;;;2.65;56.16;101360.59;1755261;81;21081;-55
2021/04/10 03:25:09;;;;;;;38.13;18.85;;;;;;;2.63;55.87;101368.10;1755192;81;21057;-55
2021/04/10 03:27:41;;;;;;;26.70;17.50;;;;;;;2.67;55.82;101365.81;1755135;81;21388;-56
2021/04/10 03:30:16;;;;;;;26.17;17.90;;;;;;;2.70;55.81;101370.34;1750717;81;21062;-55
2021/04/10 03:32:51;;;;;;;25.68;17.12;;;;;;;2.70;55.68;101370.34;1727974;81;21061;-55
2021/04/10 03:35:31;;;;;;;27.75;17.80;;;;;;;2.72;55.69;101367.43;1754825;81;21104;-54
2021/04/10 03:38:00;;;;;;;27.05;18.77;;;;;;;2.71;55.90;101372.53;1755125;81;21033;-54
2021/04/10 03:40:31;;;;;;;27.42;18.05;;;;;;;2.72;55.91;101369.61;1750429;81;21606;-56
2021/04/10 03:43:07;;;;;;;24.80;17.80;;;;;;;2.73;55.82;101366.38;1752538;81;21647;-55
2021/04/10 03:45:38;;;;;;;27.65;18.77;;;;;;;2.76;55.75;101366.83;1748440;80;21014;-55
2021/04/10 03:48:09;;;;;;;25.27;17.02;;;;;;;2.81;55.82;101376.25;1751203;81;21065;-55
2021/04/10 03:50:43;;;;;;;30.48;18.57;;;;;;;2.84;55.74;101377.20;1722584;81;21612;-55
2021/04/10 03:53:11;;;;;;;23.02;17.40;;;;;;;2.86;55.69;101375.98;1750515;81;21453;-55
2021/04/10 03:55:43;;;;;;;26.05;19.05;;;;;;;2.91;55.76;101369.95;1749881;81;21049;-55
2021/04/10 03:58:12;;;;;;;31.00;16.40;;;;;;;2.97;55.86;101373.20;1749952;81;21041;-55
2021/04/10 04:00:46;;;;;;;23.07;16.90;;;;;;;3.03;55.65;101368.86;1749974;81;20990;-55
2021/04/10 04:03:17;;;;;;;26.33;17.05;;;;;;;3.09;55.32;101369.44;1750113;81;21002;-54
2021/04/10 04:05:46;;;;;;;31.80;17.23;;;;;;;3.17;54.85;101368.42;1750192;81;21358;-55
2021/04/10 04:08:18;;;;;;;29.82;16.00;;;;;;;3.28;54.81;101370.56;1750110;81;21010;-55
2021/04/10 04:10:48;;;;;;;29.98;17.30;;;;;;;3.34;54.58;101368.39;1750041;81;21065;-55
2021/04/10 04:13:17;;;;;;;25.45;15.83;;;;;;;3.41;54.62;101374.69;1749712;81;21037;-55
2021/04/10 04:15:52;;;;;;;32.33;17.85;;;;;;;3.51;54.26;101370.77;1750082;81;21369;-55
2021/04/10 04:18:19;;;;;;;30.75;17.55;;;;;;;3.59;54.22;101380.93;1750069;81;21361;-55
2021/04/10 04:20:50;;;;;;;27.95;17.15;;;;;;;3.67;54.41;101371.75;1749898;81;21065;-55
2021/04/10 04:23:17;;;;;;;31.30;17.95;;;;;;;3.75;54.20;101381.08;1749805;81;21030;-55
2021/04/10 04:25:48;;;;;;;28.35;17.35;;;;;;;3.85;54.16;101375.79;1749430;81;21006;-55
2021/04/10 04:28:17;;;;;;;24.20;17.85;;;;;;;3.93;53.78;101377.80;1749838;81;21033;-55
2021/04/10 04:30:50;;;;;;;39.90;17.35;;;;;;;4.02;52.83;101377.61;1749958;81;21382;-55
2021/04/10 04:33:18;;;;;;;27.70;18.57;;;;;;;4.11;52.71;101378.54;1749212;81;21054;-55
2021/04/10 04:35:51;;;;;;;26.60;18.40;;;;;;;4.22;51.79;101377.63;1749804;81;21065;-54
2021/04/10 04:38:23;;;;;;;22.42;16.12;;;;;;;4.34;51.32;101375.95;1749632;81;21061;-55
2021/04/10 04:40:55;;;;;;;27.60;17.73;;;;;;;4.44;51.07;101380.44;1749976;81;21042;-54
2021/04/10 04:43:23;;;;;;;26.45;18.55;;;;;;;4.54;50.62;101377.84;1744893;81;21381;-55
2021/04/10 04:45:58;;;;;;;25.72;17.90;;;;;;;4.62;50.28;101374.91;1741481;80;21053;-55
2021/04/10 04:48:34;;;;;;;23.90;17.57;;;;;;;4.68;50.13;101375.42;1741597;82;21620;-55
2021/04/10 04:51:08;;;;;;;24.55;14.75;;;;;;;4.74;49.91;101380.02;1739505;82;21053;-54
2021/04/10 04:53:38;;;;;;;21.77;15.73;;;;;;;4.80;49.67;101383.27;1742094;82;21979;-55
2021/04/10 04:56:08;;;;;;;24.52;15.63;;;;;;;4.85;49.71;101383.45;1741649;82;21215;-55
2021/04/10 04:58:41;;;;;;;23.30;16.12;;;;;;;4.91;49.40;101379.05;1741867;82;21026;-56
2021/04/10 05:01:09;;;;;;;24.60;16.55;;;;;;;4.96;49.34;101378.44;1741343;82;21070;-55
2021/04/10 05:03:37;;;;;;;22.35;16.07;;;;;;;4.98;49.10;101385.85;1741215;82;21620;-55
2021/04/10 05:06:10;;;;;;;22.22;15.85;;;;;;;5.01;49.06;101380.80;1741159;82;21070;-55
2021/04/10 05:08:39;;;;;;;23.85;15.85;;;;;;;5.04;48.93;101381.44;1741331;82;21222;-54
2021/04/10 05:11:09;;;;;;;25.23;16.60;;;;;;;5.05;49.00;101368.97;1741766;82;21003;-55
2021/04/10 05:13:39;;;;;;;23.65;15.15;;;;;;;5.11;49.02;101370.00;1741813;82;21081;-55
2021/04/10 05:16:09;;;;;;;25.12;16.65;;;;;;;5.19;48.69;101367.88;1741488;82;21038;-55
2021/04/10 05:18:45;;;;;;;24.20;16.12;;;;;;;5.27;48.75;101373.64;1741752;82;21058;-55
2021/04/10 05:21:14;;;;;;;25.02;15.63;;;;;;;5.35;48.45;101365.20;1741617;82;21266;-55
2021/04/10 05:23:42;;;;;;;26.05;17.25;;;;;;;5.45;48.00;101368.01;1741393;82;21038;-55
2021/04/10 05:26:15;;;;;;;27.50;16.85;;;;;;;5.53;47.74;101372.69;1741729;82;21127;-55
2021/04/10 05:28:42;;;;;;;23.27;15.38;;;;;;;5.64;47.51;101368.96;1741256;82;21587;-55
2021/04/10 05:31:16;;;;;;;22.48;16.07;;;;;;;5.72;47.28;101371.44;1741498;82;21006;-55
2021/04/10 05:33:48;;;;;;;20.00;15.00;;;;;;;5.84;46.95;101372.41;1741632;82;21378;-55
2021/04/10 05:36:17;;;;;;;25.97;15.70;;;;;;;5.91;46.73;101367.45;1741902;82;21046;-54
2021/04/10 05:38:50;;;;;;;22.80;15.78;;;;;;;6.01;46.85;101367.84;1741542;82;21066;-53
2021/04/10 05:41:28;;;;;;;24.85;15.25;;;;;;;6.11;46.96;101369.55;1741389;82;21610;-56
2021/04/10 05:43:59;;;;;;;25.97;15.15;;;;;;;6.20;46.94;101370.97;1745051;82;21090;-56
2021/04/10 05:46:31;;;;;;;23.15;14.87;;;;;;;6.27;46.90;101372.26;1747463;80;21439;-55
2021/04/10 05:49:10;;;;;;;27.48;15.35;;;;;;;6.35;46.63;101376.63;1747225;82;21042;-56
2021/04/10 05:51:36;;;;;;;22.87;14.20;;;;;;;6.44;46.54;101374.45;1746406;82;21032;-55
2021/04/10 05:54:08;;;;;;;22.70;13.25;;;;;;;6.52;46.07;101379.64;1746494;82;21073;-56
2021/04/10 05:56:43;;;;;;;21.82;13.48;;;;;;;6.63;45.80;101380.28;1747019;82;21023;-55
2021/04/10 05:59:10;;;;;;;18.48;13.18;;;;;;;6.71;45.39;101370.96;1747364;82;21374;-55
2021/04/10 06:01:41;;;;;;;25.95;13.72;;;;;;;6.79;44.95;101373.41;1747295;82;21022;-55
2021/04/10 06:04:10;;;;;;;19.82;12.60;;;;;;;6.86;44.94;101384.25;1746927;82;21041;-55
2021/04/10 06:06:39;;;;;;;17.98;13.28;;;;;;;6.92;44.62;101377.91;1751957;78;21077;-55
2021/04/10 06:09:14;;;;;;;21.95;12.18;;;;;;;6.99;44.31;101382.77;1747121;82;21046;-56
2021/04/10 06:11:46;;;;;;;17.42;12.93;;;;;;;7.04;44.28;101375.25;1747123;82;21456;-56
2021/04/10 06:14:19;;;;;;;20.60;12.95;;;;;;;7.12;44.01;101381.80;1746900;82;21077;-55
2021/04/10 06:16:55;;;;;;;19.00;12.60;;;;;;;7.21;43.90;101381.78;1747204;82;21061;-56
2021/04/10 06:19:26;;;;;;;18.40;12.25;;;;;;;7.30;43.78;101374.65;1746931;82;21632;-55
2021/04/10 06:21:56;;;;;;;18.73;12.35;;;;;;;7.41;43.48;101380.18;1747319;82;21410;-55
2021/04/10 06:24:26;;;;;;;17.27;11.78;;;;;;;7.48;43.23;101384.20;1747633;82;21364;-55
2021/04/10 06:29:37;;;;;;;18.25;11.43;;;;;;;7.71;42.77;101386.77;1828182;76;25076;-55
2021/04/10 06:32:07;;;;;;;23.02;11.45;;;;;;;7.74;42.53;101390.40;1815321;79;21679;-55
2021/04/10 06:34:38;;;;;;;21.05;12.30;;;;;;;7.79;42.77;101382.34;1813815;78;21382;-54
2021/04/10 06:37:10;;;;;;;17.82;12.68;;;;;;;7.85;42.44;101380.05;1810875;79;21002;-54
2021/04/10 06:39:40;;;;;;;17.27;11.85;;;;;;;7.94;42.19;101379.18;1744151;82;21053;-55
2021/04/10 06:42:10;;;;;;;17.50;11.83;;;;;;;8.01;41.94;101378.55;1744496;82;21050;-55
2021/04/10 06:44:42;;;;;;;18.00;10.98;;;;;;;8.06;41.63;101379.21;1744230;82;21034;-54
2021/04/10 06:47:10;;;;;;;15.75;11.20;;;;;;;8.10;41.54;101364.00;1736196;81;21282;-54
2021/04/10 06:49:42;;;;;;;17.77;11.30;;;;;;;8.17;41.20;101375.67;1731603;82;21073;-55
2021/04/10 06:52:16;;;;;;;19.50;11.88;;;;;;;8.24;40.89;101383.25;1731336;82;21667;-54
2021/04/10 06:57:34;;;;;;;17.98;11.33;;;;;;;8.46;40.90;101377.28;1844839;76;23358;-54
2021/04/10 07:00:25;;;;;;;18.10;11.73;;;;;;;8.50;40.82;101381.19;1813559;79;21039;-55
2021/04/10 07:02:56;;;;;;;16.48;9.83;;;;;;;8.63;40.50;101389.72;1813171;79;21352;-54
2021/04/10 07:05:23;;;;;;;19.12;10.20;;;;;;;8.71;40.17;101377.59;1799911;79;21714;-56
2021/04/10 07:07:54;;;;;;;22.17;10.15;;;;;;;8.81;39.98;101375.09;1807059;79;21037;-54
2021/04/10 07:10:26;;;;;;;19.27;10.23;;;;;;;8.89;39.94;101377.99;1814776;79;21538;-54
2021/04/10 07:12:59;;;;;;;13.40;9.78;;;;;;;9.01;39.69;101388.42;1806369;78;21627;-54
2021/04/10 07:15:25;;;;;;;14.20;9.75;;;;;;;9.08;39.71;101385.56;1783084;80;21269;-55
2021/04/10 07:17:56;;;;;;;12.53;9.13;;;;;;;9.17;39.82;101385.48;1780457;80;21057;-55
2021/04/10 07:20:28;;;;;;;16.05;9.25;;;;;;;9.28;39.40;101396.97;1783287;80;21014;-55
2021/04/10 07:23:03;;;;;;;18.50;10.35;;;;;;;9.34;39.34;101389.17;1783002;80;21072;-56
2021/04/10 07:25:43;;;;;;;15.90;10.80;;;;;;;9.49;39.02;101386.45;1845506;76;22752;-55
2021/04/10 07:28:29;;;;;;;15.13;10.70;;;;;;;9.48;38.82;101391.62;1815635;78;21030;-55
2021/04/10 07:31:05;;;;;;;17.02;10.60;;;;;;;9.49;38.98;101385.91;1814968;79;21187;-55
2021/04/10 07:33:36;;;;;;;15.10;9.70;;;;;;;9.57;38.96;101388.79;1814958;79;21034;-55
2021/04/10 07:36:07;;;;;;;13.10;9.93;;;;;;;9.68;39.28;101387.92;1815452;79;21065;-56
2021/04/10 07:38:42;;;;;;;16.37;9.48;;;;;;;9.81;38.63;101392.28;1815537;79;21758;-56
2021/04/10 07:41:18;;;;;;;16.23;10.30;;;;;;;9.93;38.42;101395.00;1815710;79;21529;-55
2021/04/10 07:43:46;;;;;;;18.00;10.68;;;;;;;10.01;37.88;101389.09;1815780;78;21193;-55
2021/04/10 07:46:27;;;;;;;14.23;10.00;;;;;;;10.05;37.48;101385.89;1797980;79;21020;-56
2021/04/10 07:49:12;;;;;;;14.33;10.68;;;;;;;10.07;37.79;101390.58;1783127;80;21590;-55
2021/04/10 07:51:57;;;;;;;16.60;10.72;;;;;;;10.16;37.81;101379.47;1783146;80;21033;-55
2021/04/10 07:54:38;;;;;;;16.82;10.70;;;;;;;10.25;37.52;101379.92;1783190;80;21021;-56
2021/04/10 07:57:15;;;;;;;15.13;10.13;;;;;;;10.33;37.71;101383.61;1782731;80;21419;-55
2021/04/10 07:59:53;;;;;;;13.30;9.43;;;;;;;10.45;37.26;101383.59;1782961;79;20953;-55
2021/04/10 08:02:22;;;;;;;;;;;;;;;10.51;37.20;101393.58;1785930;79;21044;-55
2021/04/10 08:05:08;;;;;;;;;;;;;;;10.53;36.97;101390.88;1786096;80;20553;-56
2021/04/10 08:07:40;;;;;;;18.82;10.65;;;;;;;10.57;36.84;101388.99;1782847;80;20565;-56
2021/04/10 08:10:13;;;;;;;17.60;12.25;;;;;;;10.59;36.59;101375.30;1782962;80;21139;-55
2021/04/10 08:12:41;;;;;;;18.70;10.85;;;;;;;10.68;36.56;101375.72;1782772;80;20954;-55
2021/04/10 08:15:11;;;;;;;11.45;8.98;;;;;;;10.87;36.00;101387.26;1783047;80;21061;-55
2021/04/10 08:17:43;;;;;;;12.20;8.80;;;;;;;10.98;35.35;101383.58;1730746;80;21041;-55
2021/04/10 08:20:27;;;;;;;11.68;8.25;;;;;;;11.06;34.41;101369.41;1783030;80;21018;-55
2021/04/10 08:23:18;;;;;;;13.13;8.90;;;;;;;11.12;33.72;101377.71;1783049;80;21547;-55
2021/04/10 08:25:49;;;;;;;13.48;9.88;;;;;;;11.19;33.96;101383.89;1778816;79;21030;-56
2021/04/10 08:28:18;;;;;;;15.05;9.20;;;;;;;11.24;34.11;101362.79;1783210;80;21029;-56
2021/04/10 08:30:49;;;;;;;18.92;9.75;;;;;;;11.33;34.58;101365.92;1780239;80;21770;-55
2021/04/10 08:33:21;;;;;;;17.75;9.33;;;;;;;11.56;34.22;101369.47;1782949;80;21599;-55
2021/04/10 08:35:49;;;;;;;14.53;9.40;;;;;;;11.73;33.98;101361.99;1782355;80;21257;-55
2021/04/10 08:38:22;;;;;;;13.05;9.60;;;;;;;11.79;33.73;101367.02;1782597;80;21620;-56
2021/04/10 08:40:56;;;;;;;14.60;9.20;;;;;;;11.84;33.56;101369.80;1782617;80;20978;-55
2021/04/10 08:43:30;;;;;;;16.73;9.60;;;;;;;11.84;33.34;101354.66;1782424;80;21292;-55
2021/04/10 08:45:59;;;;;;;14.33;8.40;;;;;;;11.89;33.34;101367.11;1782727;79;20995;-55
2021/04/10 08:48:33;;;;;;;15.68;9.40;;;;;;;11.90;32.90;101366.03;1782655;80;21379;-55
2021/04/10 08:51:07;;;;;;;11.25;8.33;;;;;;;11.91;33.25;101349.78;1782436;80;21013;-55
2021/04/10 08:53:48;;;;;;;15.80;9.33;;;;;;;12.05;32.81;101358.48;1754281;80;21021;-55
2021/04/10 08:56:19;;;;;;;14.25;8.55;;;;;;;12.16;32.40;101370.45;1782386;80;21029;-55
2021/04/10 08:58:49;;;;;;;12.25;8.83;;;;;;;12.22;32.28;101360.30;1752903;80;20982;-55
2021/04/10 09:01:25;;;;;;;13.72;9.20;;;;;;;12.25;32.46;101362.53;1782406;80;21185;-55
2021/04/10 09:03:58;;;;;;;14.90;9.20;;;;;;;12.30;32.56;101359.80;1782038;80;21042;-54
2021/04/10 09:06:34;;;;;;;14.70;9.38;;;;;;;12.44;32.97;101356.89;1782100;80;21505;-54
2021/04/10 09:09:20;;;;;;;13.22;9.15;;;;;;;12.67;32.29;101354.04;1782149;80;21002;-54
2021/04/10 09:14:44;;;;;;;13.28;8.70;;;;;;;13.07;31.45;101349.31;1813422;79;23236;-56
2021/04/10 09:17:14;;;;;;;21.73;11.78;;;;;;;13.16;30.99;101353.80;1786924;80;22465;-55
2021/04/10 09:19:50;;;;;;;11.48;8.60;;;;;;;13.27;31.35;101353.28;1786333;80;21190;-55
2021/04/10 09:22:21;;;;;;;11.35;8.18;;;;;;;13.44;30.68;101347.59;1785139;80;21069;-56
2021/04/10 09:24:51;;;;;;;16.07;9.55;;;;;;;13.46;30.31;101339.33;1786276;80;21679;-56
2021/04/10 09:27:24;;;;;;;12.37;8.20;;;;;;;13.44;30.03;101340.13;1756162;80;21058;-55
2021/04/10 09:30:11;;;;;;;16.93;8.75;;;;;;;13.54;30.21;101342.11;1786471;80;21046;-55
2021/04/10 09:33:03;;;;;;;19.95;9.50;;;;;;;13.68;29.92;101331.95;1786959;79;21034;-56
2021/04/10 09:35:43;;;;;;;25.85;9.78;;;;;;;13.92;30.26;101336.42;1760598;80;21069;-56
2021/04/10 09:38:11;;;;;;;12.73;8.43;;;;;;;14.23;30.08;101330.91;1785530;80;21029;-55
2021/04/10 09:40:48;;;;;;;14.87;8.83;;;;;;;14.39;28.78;101346.40;1786259;80;21053;-55
2021/04/10 09:43:20;;;;;;;14.53;8.20;;;;;;;14.30;28.86;101336.98;1786406;80;21013;-55
2021/04/10 09:45:51;;;;;;;14.98;9.93;;;;;;;14.33;28.58;101336.42;1774571;80;21061;-56
2021/04/10 09:48:21;;;;;;;12.68;8.73;;;;;;;14.27;28.43;101322.34;1755154;81;21006;-56
2021/04/10 09:50:56;;;;;;;19.73;9.73;;;;;;;14.11;28.75;101326.48;1755311;81;21690;-55
2021/04/10 09:53:27;;;;;;;;;;;;;;;14.10;29.02;101327.60;1758036;81;21073;-57
2021/04/10 09:56:08;;;;;;;11.40;8.90;;;;;;;14.39;28.36;101319.29;1755296;81;20157;-56
2021/04/10 09:58:40;;;;;;;12.43;7.75;;;;;;;14.49;28.53;101325.66;1755563;81;22303;-57
2021/04/10 10:01:15;;;;;;;11.50;8.15;;;;;;;14.68;27.92;101323.73;1755332;81;21678;-55
2021/04/10 10:03:52;;;;;;;15.50;7.90;;;;;;;14.76;27.73;101326.46;1755220;81;21061;-55
2021/04/10 10:06:39;;;;;;;12.03;8.53;;;;;;;14.85;27.70;101313.17;1755301;81;21006;-54
2021/04/10 10:09:27;;;;;;;12.28;7.97;;;;;;;14.99;27.52;101312.56;1750949;81;21065;-54
2021/04/10 10:12:28;;;;;;;15.20;8.35;;;;;;;15.03;27.64;101313.66;1754804;81;21926;-55
2021/04/10 10:15:01;;;;;;;13.08;7.50;;;;;;;15.01;27.41;101318.09;1755214;81;21070;-55
2021/04/10 10:17:31;;;;;;;10.50;7.70;;;;;;;15.04;27.60;101305.65;1755140;81;21053;-55
2021/04/10 10:20:16;;;;;;;11.03;7.60;;;;;;;15.27;28.07;101299.20;1755193;81;21030;-55
2021/04/10 10:22:50;;;;;;;12.60;7.30;;;;;;;15.68;27.81;101303.95;1755254;81;21030;-56
2021/04/10 10:25:19;;;;;;;10.93;6.92;;;;;;;16.04;26.41;101300.14;1754664;81;21385;-56
2021/04/10 10:27:52;;;;;;;11.12;7.08;;;;;;;16.10;26.21;101306.47;1754456;81;21733;-55
2021/04/10 10:30:24;;;;;;;13.45;7.75;;;;;;;16.27;25.89;101299.13;1754531;81;21069;-55
2021/04/10 10:32:51;;;;;;;11.85;7.58;;;;;;;16.29;26.51;101296.34;1754627;81;21707;-55
2021/04/10 10:35:26;;;;;;;11.30;7.55;;;;;;;16.49;25.88;101298.09;1754665;81;21751;-55
2021/04/10 10:37:59;;;;;;;22.55;6.95;;;;;;;16.65;25.27;101300.72;1754982;81;21209;-57
2021/04/10 10:40:30;;;;;;;9.70;7.35;;;;;;;16.71;25.55;101295.38;1754112;81;21049;-54
2021/04/10 10:43:08;;;;;;;9.88;6.35;;;;;;;16.82;25.26;101288.59;1754534;81;21074;-55
2021/04/10 10:45:52;;;;;;;10.15;6.75;;;;;;;16.89;24.97;101283.55;1754380;80;21057;-54
2021/04/10 10:48:36;;;;;;;9.10;6.08;;;;;;;17.12;24.30;101298.25;1754660;81;21052;-55
2021/04/10 10:51:12;;;;;;;9.60;6.10;;;;;;;16.91;23.42;101283.25;1754818;81;21634;-55
2021/04/10 10:53:51;;;;;;;11.22;6.03;;;;;;;16.74;23.50;101301.14;1754579;81;21074;-55
2021/04/10 10:56:25;;;;;;;10.07;6.47;;;;;;;16.59;23.80;101288.28;1755159;81;21556;-54
2021/04/10 10:59:07;;;;;;;11.43;6.70;;;;;;;16.56;24.30;101279.16;1754567;81;21061;-56
2021/04/10 11:01:41;;;;;;;7.65;5.42;;;;;;;16.67;24.27;101271.54;1754576;81;21030;-54
2021/04/10 11:04:31;;;;;;;9.13;6.35;;;;;;;17.07;23.95;101274.17;1754619;81;21217;-56
2021/04/10 11:07:01;;;;;;;7.95;6.08;;;;;;;17.40;23.23;101271.52;1753869;81;21061;-56
2021/04/10 11:09:35;;;;;;;10.20;6.37;;;;;;;17.58;23.09;101264.33;1754337;81;21053;-55
2021/04/10 11:12:15;;;;;;;8.20;6.25;;;;;;;17.70;22.34;101264.68;1754930;81;21643;-55
2021/04/10 11:14:50;;;;;;;10.78;6.83;;;;;;;17.59;22.66;101264.03;1699212;83;21065;-56
2021/04/10 11:17:33;;;;;;;10.50;5.80;;;;;;;17.75;22.56;101263.80;1695289;83;21402;-56
2021/04/10 11:20:33;;;;;;;9.45;6.00;;;;;;;17.74;22.70;101253.23;1722028;83;21038;-56
2021/04/10 11:23:08;;;;;;;10.55;6.25;;;;;;;17.74;22.63;101260.75;1719752;83;21123;-58
2021/04/10 11:25:52;;;;;;;9.68;6.65;;;;;;;17.81;22.99;101257.60;1721849;83;21101;-55
2021/04/10 11:28:32;;;;;;;14.68;7.80;;;;;;;17.91;22.88;101254.11;1721919;83;20994;-55
2021/04/10 11:31:13;;;;;;;8.33;5.92;;;;;;;18.23;23.07;101244.13;1721803;83;21117;-56
2021/04/10 11:33:42;;;;;;;13.27;7.40;;;;;;;18.72;22.83;101253.49;1720414;83;21073;-56
2021/04/10 11:36:12;;;;;;;15.40;7.15;;;;;;;19.12;21.96;101249.09;1721921;83;21745;-56
2021/04/10 11:39:02;;;;;;;13.88;6.47;;;;;;;19.07;22.00;101244.20;1721822;83;21062;-56
2021/04/10 11:41:46;;;;;;;14.20;6.22;;;;;;;19.06;22.07;101238.37;1722247;83;21135;-55
2021/04/10 11:44:17;;;;;;;15.00;7.40;;;;;;;19.31;21.95;101234.20;1721108;83;21404;-56
2021/04/10 11:46:45;;;;;;;12.68;7.67;;;;;;;19.22;21.01;101239.70;1721706;82;21065;-56
2021/04/10 11:49:29;;;;;;;13.13;6.65;;;;;;;19.03;21.28;101227.86;1721902;83;21176;-55
2021/04/10 11:52:09;;;;;;;13.58;6.67;;;;;;;19.11;21.55;101226.55;1722056;83;21240;-56
2021/04/10 11:54:47;;;;;;;10.70;7.87;;;;;;;19.27;21.20;101228.42;1717719;81;21206;-55
2021/04/10 11:57:32;;;;;;;15.35;7.72;;;;;;;19.10;21.35;101219.91;1713178;82;21082;-55
2021/04/10 12:00:18;;;;;;;11.30;6.83;;;;;;;18.99;22.21;101209.55;1720205;83;21625;-56